Hillsboro, OR (97124)

12:38 AM PDT on September 01, 2015 (GMT -0700)
Portland-Hillsboro | | Change Station
CLOSE
Current Station
Airport
Location: Portland Hillsboro,
Elevation: 203 ft
Nearby Weather Stations

Elev 203 ft 45.54 °N, 122.95 °W | Updated 45 minutes ago

Partly Cloudy
Partly Cloudy
59 °F
Feels Like 59 °F
N
5
Wind Variable Wind from South

Today
High -- | Low -- °F
--% Chance of Precip.
Yesterday
High -- | Low -- °F
Precip. -- in
6:32 AM 7:49 PM
Waning Gibbous, 90% visible
Pressure 29.96 in
Visibility 10.0 miles
Clouds Few 5500 ft
Dew Point 51 °F
Humidity 75%
Rainfall 0.00 in
Snow Depth Not available.
UV 0 out of 12
Pollen 3.00 out of 12
Air Quality Not available.
Flu Activity Not available.
METAR KHIO 010653Z AUTO 18004KT 10SM FEW055 15/11 A2996 RMK AO2 SLP144 T01500106
Pressure 29.96 in
Visibility 10.0 miles
Clouds Few 5500 ft
Dew Point 51 °F
Humidity 75%
Rainfall 0.00 in
Snow Depth Not available.
UV 0 out of 12
Pollen 3.00 out of 12
Air Quality Not available.
Flu Activity Not available.
METAR KHIO 010653Z AUTO 18004KT 10SM FEW055 15/11 A2996 RMK AO2 SLP144 T01500106

10-Day Weather Forecast

×

Almanac

Astronomy

Sep. 01, 2015 Rise Set
Actual Time
Civil Twilight
Nautical Twilight
Astronomical Twilight
Moon
Length of Visible Light
Length of Day
Tomorrow will be .
, % of the Moon is Illuminated

Today's Extremes

State Highs State Lows

Community

WunderPhotos

Upload Photos

1,851,488 photos uploaded!

WunderBlogs® & News

Nearby

Air Quality

  Air Quality AQ Index Pollutant
Not available.

Snow Depth

Station Depth Elevation

Earthquake Activity

City Distance Mag. Time & Date
Minimum magnitude displayed is 2.5.

Coastal Water Temperatures

Place Temperature

Stations

Nearby Weather Stations

Station Location Temp. Windchill Dew Point Humidity Wind Precip. Elev Updated Type